sensor_id;sensor_type;location;lat;lon;timestamp;pressure;altitude;pressure_sealevel;temperature;humidity
26178;BME280;13924;47.670;10.310;2023-03-20T00:00:43;93500;;;7.7;100.0
26178;BME280;13924;47.670;10.310;2023-03-20T00:15:43;93480;;;8.3;100.0
26178;BME280;13924;47.670;10.310;2023-03-20T00:30:40;93500;;;7.6;100.0
26178;BME280;13924;47.670;10.310;2023-03-20T00:45:40;93500;;;7.5;100.0
26178;BME280;13924;47.670;10.310;2023-03-20T01:00:42;93520;;;7.6;100.0
26178;BME280;13924;47.670;10.310;2023-03-20T01:15:47;93520;;;7.6;100.0
26178;BME280;13924;47.670;10.310;2023-03-20T01:30:52;93580;;;7.2;100.0
26178;BME280;13924;47.670;10.310;2023-03-20T01:45:53;93520;;;7.5;100.0
26178;BME280;13924;47.670;10.310;2023-03-20T02:00:43;93550;;;7.1;100.0
26178;BME280;13924;47.670;10.310;2023-03-20T02:01:27;93560;;;7.1;100.0
26178;BME280;13924;47.670;10.310;2023-03-20T02:16:02;93540;;;7.2;100.0
26178;BME280;13924;47.670;10.310;2023-03-20T02:31:05;93540;;;7.4;100.0
26178;BME280;13924;47.670;10.310;2023-03-20T02:45:51;93500;;;7.7;100.0
26178;BME280;13924;47.670;10.310;2023-03-20T03:00:55;93500;;;7.7;100.0
26178;BME280;13924;47.670;10.310;2023-03-20T03:15:51;93540;;;7.6;100.0
26178;BME280;13924;47.670;10.310;2023-03-20T03:30:52;93550;;;7.8;100.0
26178;BME280;13924;47.670;10.310;2023-03-20T03:45:53;93610;;;7.5;100.0
26178;BME280;13924;47.670;10.310;2023-03-20T04:00:51;93580;;;7.6;100.0
26178;BME280;13924;47.670;10.310;2023-03-20T04:15:49;93600;;;7.7;100.0
26178;BME280;13924;47.670;10.310;2023-03-20T04:30:52;93640;;;7.3;100.0
26178;BME280;13924;47.670;10.310;2023-03-20T04:45:58;93640;;;7.3;100.0
26178;BME280;13924;47.670;10.310;2023-03-20T05:00:54;93610;;;7.4;100.0
26178;BME280;13924;47.670;10.310;2023-03-20T05:15:55;93660;;;7.2;100.0
26178;BME280;13924;47.670;10.310;2023-03-20T05:25:37;93680;;;7.2;100.0
26178;BME280;13924;47.670;10.310;2023-03-20T05:40:42;93680;;;7.2;100.0
26178;BME280;13924;47.670;10.310;2023-03-20T05:55:41;93710;;;7.1;100.0
26178;BME280;13924;47.670;10.310;2023-03-20T06:10:40;93710;;;7.2;100.0
26178;BME280;13924;47.670;10.310;2023-03-20T06:25:40;93730;;;7.1;100.0
26178;BME280;13924;47.670;10.310;2023-03-20T06:40:42;93730;;;7.1;100.0
26178;BME280;13924;47.670;10.310;2023-03-20T06:55:42;93710;;;7.3;100.0
26178;BME280;13924;47.670;10.310;2023-03-20T07:10:56;93710;;;7.3;100.0
26178;BME280;13924;47.670;10.310;2023-03-20T07:25:45;93650;;;7.9;100.0
26178;BME280;13924;47.670;10.310;2023-03-20T07:40:43;93650;;;7.9;100.0
26178;BME280;13924;47.670;10.310;2023-03-20T07:55:46;93650;;;8.5;100.0
26178;BME280;13924;47.670;10.310;2023-03-20T08:10:44;93660;;;8.4;100.0
26178;BME280;13924;47.670;10.310;2023-03-20T08:25:47;93620;;;8.8;100.0
26178;BME280;13924;47.670;10.310;2023-03-20T08:41:12;93620;;;8.8;100.0
26178;BME280;13924;47.670;10.310;2023-03-20T08:55:47;93610;;;8.9;100.0
26178;BME280;13924;47.670;10.310;2023-03-20T09:10:48;93610;;;8.9;100.0
26178;BME280;13924;47.670;10.310;2023-03-20T09:25:46;93580;;;9.4;100.0
26178;BME280;13924;47.670;10.310;2023-03-20T09:40:51;93580;;;9.2;100.0
26178;BME280;13924;47.670;10.310;2023-03-20T09:55:48;93570;;;9.4;100.0
26178;BME280;13924;47.670;10.310;2023-03-20T10:10:57;93570;;;9.4;100.0
26178;BME280;13924;47.670;10.310;2023-03-20T10:26:04;93550;;;9.4;100.0
26178;BME280;13924;47.670;10.310;2023-03-20T10:40:52;93550;;;9.8;100.0
26178;BME280;13924;47.670;10.310;2023-03-20T11:10:58;93520;;;12.0;100.0
26178;BME280;13924;47.670;10.310;2023-03-20T11:25:57;93520;;;12.0;100.0
26178;BME280;13924;47.670;10.310;2023-03-20T11:40:51;93510;;;13.4;100.0
26178;BME280;13924;47.670;10.310;2023-03-20T11:56:02;93510;;;13.4;100.0
26178;BME280;13924;47.670;10.310;2023-03-20T12:10:58;93510;;;13.1;100.0
26178;BME280;13924;47.670;10.310;2023-03-20T12:25:56;93500;;;11.7;100.0
26178;BME280;13924;47.670;10.310;2023-03-20T12:41:00;93500;;;11.7;100.0
26178;BME280;13924;47.670;10.310;2023-03-20T12:56:16;93500;;;11.7;100.0
26178;BME280;13924;47.670;10.310;2023-03-20T13:11:00;93500;;;12.9;100.0
26178;BME280;13924;47.670;10.310;2023-03-20T13:26:06;93490;;;11.9;100.0
26178;BME280;13924;47.670;10.310;2023-03-20T13:41:00;93480;;;12.9;100.0
26178;BME280;13924;47.670;10.310;2023-03-20T13:56:04;93490;;;12.8;100.0
26178;BME280;13924;47.670;10.310;2023-03-20T14:11:12;93480;;;12.1;100.0
26178;BME280;13924;47.670;10.310;2023-03-20T14:26:08;93480;;;12.1;100.0
26178;BME280;13924;47.670;10.310;2023-03-20T14:41:04;93460;;;12.4;100.0
26178;BME280;13924;47.670;10.310;2023-03-20T14:56:08;93460;;;12.4;100.0
26178;BME280;13924;47.670;10.310;2023-03-20T15:11:04;93430;;;14.1;95.7
26178;BME280;13924;47.670;10.310;2023-03-20T15:25:59;93410;;;14.5;98.4
26178;BME280;13924;47.670;10.310;2023-03-20T15:41:24;93410;;;14.5;98.4
26178;BME280;13924;47.670;10.310;2023-03-20T15:56:03;93420;;;12.4;100.0
26178;BME280;13924;47.670;10.310;2023-03-20T16:11:13;93420;;;12.4;100.0
26178;BME280;13924;47.670;10.310;2023-03-20T16:26:04;93400;;;12.0;100.0
26178;BME280;13924;47.670;10.310;2023-03-20T16:41:27;93420;;;11.4;100.0
26178;BME280;13924;47.670;10.310;2023-03-20T16:56:05;93410;;;12.1;100.0
26178;BME280;13924;47.670;10.310;2023-03-20T17:11:09;93440;;;11.9;100.0
26178;BME280;13924;47.670;10.310;2023-03-20T17:26:04;93450;;;11.0;100.0
26178;BME280;13924;47.670;10.310;2023-03-20T17:41:04;93460;;;10.8;100.0
26178;BME280;13924;47.670;10.310;2023-03-20T17:56:10;93460;;;10.3;100.0
26178;BME280;13924;47.670;10.310;2023-03-20T18:11:07;93460;;;10.3;100.0
26178;BME280;13924;47.670;10.310;2023-03-20T18:26:16;93450;;;10.1;100.0
26178;BME280;13924;47.670;10.310;2023-03-20T18:41:06;93450;;;9.1;100.0
26178;BME280;13924;47.670;10.310;2023-03-20T18:56:17;93450;;;9.1;100.0
26178;BME280;13924;47.670;10.310;2023-03-20T19:11:10;93460;;;9.4;100.0
26178;BME280;13924;47.670;10.310;2023-03-20T19:26:41;93470;;;9.4;100.0
26178;BME280;13924;47.670;10.310;2023-03-20T19:41:10;93480;;;9.6;100.0
26178;BME280;13924;47.670;10.310;2023-03-20T19:56:09;93490;;;9.2;100.0
26178;BME280;13924;47.670;10.310;2023-03-20T20:11:12;93490;;;8.3;100.0
26178;BME280;13924;47.670;10.310;2023-03-20T20:26:09;93510;;;7.6;100.0
26178;BME280;13924;47.670;10.310;2023-03-20T20:41:12;93510;;;7.6;100.0
26178;BME280;13924;47.670;10.310;2023-03-20T20:56:11;93520;;;7.6;100.0
26178;BME280;13924;47.670;10.310;2023-03-20T21:11:12;93530;;;7.3;100.0
26178;BME280;13924;47.670;10.310;2023-03-20T21:26:41;93530;;;7.3;100.0
26178;BME280;13924;47.670;10.310;2023-03-20T21:41:21;93530;;;7.4;100.0
26178;BME280;13924;47.670;10.310;2023-03-20T21:56:15;93530;;;7.0;100.0
26178;BME280;13924;47.670;10.310;2023-03-20T22:11:24;93510;;;7.1;100.0
26178;BME280;13924;47.670;10.310;2023-03-20T22:26:18;93520;;;7.5;100.0
26178;BME280;13924;47.670;10.310;2023-03-20T22:41:16;93510;;;7.6;100.0
26178;BME280;13924;47.670;10.310;2023-03-20T22:56:15;93530;;;7.3;100.0
26178;BME280;13924;47.670;10.310;2023-03-20T23:00:48;93530;;;7.3;100.0
26178;BME280;13924;47.670;10.310;2023-03-20T23:15:36;93500;;;7.4;100.0
26178;BME280;13924;47.670;10.310;2023-03-20T23:30:36;93500;;;7.2;100.0
26178;BME280;13924;47.670;10.310;2023-03-20T23:45:40;93500;;;7.2;100.0
